sensor_id;sensor_type;location;lat;lon;timestamp;pressure;altitude;pressure_sealevel;temperature;humidity
29121;BME280;16191;49.548;8.658;2023-03-24T00:01:03;99381.00;;;13.90;100.00
29121;BME280;16191;49.548;8.658;2023-03-24T00:03:31;99375.78;;;13.90;100.00
29121;BME280;16191;49.548;8.658;2023-03-24T00:05:59;99380.72;;;13.94;100.00
29121;BME280;16191;49.548;8.658;2023-03-24T00:08:32;99379.22;;;13.90;100.00
29121;BME280;16191;49.548;8.658;2023-03-24T00:11:07;99369.47;;;13.92;100.00
29121;BME280;16191;49.548;8.658;2023-03-24T00:13:34;99372.94;;;13.93;100.00
29121;BME280;16191;49.548;8.658;2023-03-24T00:16:06;99374.72;;;13.92;100.00
29121;BME280;16191;49.548;8.658;2023-03-24T00:18:34;99368.63;;;13.92;100.00
29121;BME280;16191;49.548;8.658;2023-03-24T00:21:03;99364.53;;;13.88;100.00
29121;BME280;16191;49.548;8.658;2023-03-24T00:23:31;99351.53;;;13.86;100.00
29121;BME280;16191;49.548;8.658;2023-03-24T00:26:11;99349.44;;;13.91;100.00
29121;BME280;16191;49.548;8.658;2023-03-24T00:28:45;99344.50;;;13.87;100.00
29121;BME280;16191;49.548;8.658;2023-03-24T00:31:15;99337.59;;;13.86;100.00
29121;BME280;16191;49.548;8.658;2023-03-24T00:33:43;99339.59;;;13.82;100.00
29121;BME280;16191;49.548;8.658;2023-03-24T00:36:10;99342.03;;;13.85;100.00
29121;BME280;16191;49.548;8.658;2023-03-24T00:38:39;99324.59;;;13.84;100.00
29121;BME280;16191;49.548;8.658;2023-03-24T00:41:07;99325.84;;;13.79;100.00
29121;BME280;16191;49.548;8.658;2023-03-24T00:43:36;99322.94;;;13.83;100.00
29121;BME280;16191;49.548;8.658;2023-03-24T00:46:07;99303.72;;;13.83;100.00
29121;BME280;16191;49.548;8.658;2023-03-24T00:48:36;99303.28;;;13.89;100.00
29121;BME280;16191;49.548;8.658;2023-03-24T00:51:05;99291.75;;;13.91;100.00
29121;BME280;16191;49.548;8.658;2023-03-24T00:53:34;99288.59;;;13.86;100.00
29121;BME280;16191;49.548;8.658;2023-03-24T00:56:02;99282.31;;;13.89;100.00
29121;BME280;16191;49.548;8.658;2023-03-24T00:58:29;99267.84;;;13.83;100.00
29121;BME280;16191;49.548;8.658;2023-03-24T01:00:59;99261.03;;;13.81;100.00
29121;BME280;16191;49.548;8.658;2023-03-24T01:03:26;99273.53;;;13.77;100.00
29121;BME280;16191;49.548;8.658;2023-03-24T01:05:59;99264.09;;;13.75;100.00
29121;BME280;16191;49.548;8.658;2023-03-24T01:08:30;99249.41;;;13.72;100.00
29121;BME280;16191;49.548;8.658;2023-03-24T01:10:56;99250.44;;;13.69;100.00
29121;BME280;16191;49.548;8.658;2023-03-24T01:13:28;99251.19;;;13.71;100.00
29121;BME280;16191;49.548;8.658;2023-03-24T01:15:55;99244.16;;;13.72;100.00
29121;BME280;16191;49.548;8.658;2023-03-24T01:18:22;99246.88;;;13.70;100.00
29121;BME280;16191;49.548;8.658;2023-03-24T01:20:49;99253.91;;;13.70;100.00
29121;BME280;16191;49.548;8.658;2023-03-24T01:23:19;99258.09;;;13.72;100.00
29121;BME280;16191;49.548;8.658;2023-03-24T01:25:48;99255.16;;;13.77;100.00
29121;BME280;16191;49.548;8.658;2023-03-24T01:28:18;99247.47;;;13.87;100.00
29121;BME280;16191;49.548;8.658;2023-03-24T01:30:47;99257.06;;;13.75;100.00
29121;BME280;16191;49.548;8.658;2023-03-24T01:33:14;99248.34;;;13.75;100.00
29121;BME280;16191;49.548;8.658;2023-03-24T01:35:41;99256.94;;;13.77;100.00
29121;BME280;16191;49.548;8.658;2023-03-24T01:38:09;99243.94;;;13.75;100.00
29121;BME280;16191;49.548;8.658;2023-03-24T01:40:38;99240.91;;;13.81;100.00
29121;BME280;16191;49.548;8.658;2023-03-24T01:43:06;99243.31;;;13.84;100.00
29121;BME280;16191;49.548;8.658;2023-03-24T01:45:48;99230.53;;;13.80;100.00
29121;BME280;16191;49.548;8.658;2023-03-24T01:48:37;99238.06;;;13.84;100.00
29121;BME280;16191;49.548;8.658;2023-03-24T01:51:13;99222.94;;;13.88;100.00
29121;BME280;16191;49.548;8.658;2023-03-24T01:53:46;99226.28;;;13.90;100.00
29121;BME280;16191;49.548;8.658;2023-03-24T01:56:16;99225.34;;;13.91;100.00
29121;BME280;16191;49.548;8.658;2023-03-24T01:58:47;99229.00;;;14.01;100.00
29121;BME280;16191;49.548;8.658;2023-03-24T02:01:23;99231.00;;;13.97;100.00
29121;BME280;16191;49.548;8.658;2023-03-24T02:04:18;99232.47;;;14.01;100.00
29121;BME280;16191;49.548;8.658;2023-03-24T02:06:45;99232.91;;;13.95;100.00
29121;BME280;16191;49.548;8.658;2023-03-24T02:09:13;99219.03;;;14.06;100.00
29121;BME280;16191;49.548;8.658;2023-03-24T02:11:40;99203.81;;;13.98;100.00
29121;BME280;16191;49.548;8.658;2023-03-24T02:14:08;99204.66;;;13.99;100.00
29121;BME280;16191;49.548;8.658;2023-03-24T02:16:55;99207.06;;;14.02;100.00
29121;BME280;16191;49.548;8.658;2023-03-24T02:19:52;99197.97;;;13.95;100.00
29121;BME280;16191;49.548;8.658;2023-03-24T02:35:51;99203.28;;;14.43;98.93
29121;BME280;16191;49.548;8.658;2023-03-24T02:41:51;99186.50;;;14.56;94.90
29121;BME280;16191;49.548;8.658;2023-03-24T02:50:43;99174.19;;;14.81;91.12
29121;BME280;16191;49.548;8.658;2023-03-24T02:53:20;99175.53;;;14.97;87.96
29121;BME280;16191;49.548;8.658;2023-03-24T02:56:21;99170.25;;;14.86;89.56
29121;BME280;16191;49.548;8.658;2023-03-24T02:59:04;99160.13;;;14.93;87.77
29121;BME280;16191;49.548;8.658;2023-03-24T03:01:52;99167.19;;;14.92;89.03
29121;BME280;16191;49.548;8.658;2023-03-24T03:04:53;99175.41;;;14.88;90.12
29121;BME280;16191;49.548;8.658;2023-03-24T03:07:24;99182.00;;;14.93;87.57
29121;BME280;16191;49.548;8.658;2023-03-24T03:10:41;99186.03;;;14.86;89.86
29121;BME280;16191;49.548;8.658;2023-03-24T03:12:43;99178.38;;;14.94;87.76
29121;BME280;16191;49.548;8.658;2023-03-24T03:15:18;99184.00;;;14.90;87.66
29121;BME280;16191;49.548;8.658;2023-03-24T03:17:50;99182.34;;;15.00;86.77
29121;BME280;16191;49.548;8.658;2023-03-24T03:20:21;99185.69;;;14.91;88.24
29121;BME280;16191;49.548;8.658;2023-03-24T03:22:55;99169.31;;;14.98;87.27
29121;BME280;16191;49.548;8.658;2023-03-24T03:25:29;99175.19;;;15.02;86.12
29121;BME280;16191;49.548;8.658;2023-03-24T03:28:00;99179.72;;;15.00;87.15
29121;BME280;16191;49.548;8.658;2023-03-24T03:30:34;99170.50;;;14.94;87.82
29121;BME280;16191;49.548;8.658;2023-03-24T03:33:07;99169.19;;;14.89;88.46
29121;BME280;16191;49.548;8.658;2023-03-24T03:35:37;99172.66;;;15.00;86.20
29121;BME280;16191;49.548;8.658;2023-03-24T03:40:43;99191.88;;;14.90;89.52
29121;BME280;16191;49.548;8.658;2023-03-24T03:43:17;99194.41;;;14.91;88.47
29121;BME280;16191;49.548;8.658;2023-03-24T03:45:45;99196.53;;;14.86;90.34
29121;BME280;16191;49.548;8.658;2023-03-24T03:48:13;99191.88;;;14.90;89.24
29121;BME280;16191;49.548;8.658;2023-03-24T03:50:41;99193.69;;;14.89;89.46
29121;BME280;16191;49.548;8.658;2023-03-24T03:53:08;99197.97;;;14.90;89.76
29121;BME280;16191;49.548;8.658;2023-03-24T03:55:35;99197.59;;;14.84;91.65
29121;BME280;16191;49.548;8.658;2023-03-24T03:58:03;99194.88;;;14.96;88.57
29121;BME280;16191;49.548;8.658;2023-03-24T04:00:36;99208.47;;;14.90;89.91
29121;BME280;16191;49.548;8.658;2023-03-24T04:03:52;99209.09;;;14.94;90.41
29121;BME280;16191;49.548;8.658;2023-03-24T04:07:11;99209.44;;;14.89;91.38
29121;BME280;16191;49.548;8.658;2023-03-24T04:21:45;99246.03;;;14.80;95.49
29121;BME280;16191;49.548;8.658;2023-03-24T04:24:27;99261.19;;;14.76;98.11
29121;BME280;16191;49.548;8.658;2023-03-24T04:27:38;99259.97;;;14.69;100.00
29121;BME280;16191;49.548;8.658;2023-03-24T04:30:24;99269.00;;;14.65;100.00
29121;BME280;16191;49.548;8.658;2023-03-24T04:33:03;99273.75;;;14.60;100.00
29121;BME280;16191;49.548;8.658;2023-03-24T04:35:48;99273.03;;;14.58;100.00
29121;BME280;16191;49.548;8.658;2023-03-24T04:38:25;99278.97;;;14.49;100.00
29121;BME280;16191;49.548;8.658;2023-03-24T04:41:25;99279.19;;;14.46;100.00
29121;BME280;16191;49.548;8.658;2023-03-24T04:44:05;99282.31;;;14.38;100.00
29121;BME280;16191;49.548;8.658;2023-03-24T04:46:43;99288.00;;;14.32;100.00
29121;BME280;16191;49.548;8.658;2023-03-24T04:49:15;99282.16;;;14.28;100.00
29121;BME280;16191;49.548;8.658;2023-03-24T04:51:42;99276.28;;;14.25;100.00
29121;BME280;16191;49.548;8.658;2023-03-24T04:54:18;99286.03;;;14.23;100.00
29121;BME280;16191;49.548;8.658;2023-03-24T04:56:54;99275.88;;;14.18;100.00
29121;BME280;16191;49.548;8.658;2023-03-24T04:59:29;99279.75;;;14.13;100.00
29121;BME280;16191;49.548;8.658;2023-03-24T05:02:01;99280.31;;;14.05;100.00
29121;BME280;16191;49.548;8.658;2023-03-24T05:04:28;99272.34;;;14.06;100.00
29121;BME280;16191;49.548;8.658;2023-03-24T05:07:05;99259.00;;;13.97;100.00
29121;BME280;16191;49.548;8.658;2023-03-24T05:09:32;99253.56;;;13.87;100.00
29121;BME280;16191;49.548;8.658;2023-03-24T05:12:00;99267.31;;;13.91;100.00
29121;BME280;16191;49.548;8.658;2023-03-24T05:14:30;99269.97;;;13.78;100.00
29121;BME280;16191;49.548;8.658;2023-03-24T05:16:57;99271.75;;;13.52;100.00
29121;BME280;16191;49.548;8.658;2023-03-24T05:19:23;99270.91;;;13.52;100.00
29121;BME280;16191;49.548;8.658;2023-03-24T05:21:50;99254.53;;;13.48;100.00
29121;BME280;16191;49.548;8.658;2023-03-24T05:24:17;99253.41;;;13.40;100.00
29121;BME280;16191;49.548;8.658;2023-03-24T05:26:44;99264.41;;;13.32;100.00
29121;BME280;16191;49.548;8.658;2023-03-24T05:29:16;99288.19;;;13.29;100.00
29121;BME280;16191;49.548;8.658;2023-03-24T05:31:43;99287.44;;;13.27;100.00
29121;BME280;16191;49.548;8.658;2023-03-24T05:34:15;99290.47;;;13.21;100.00
29121;BME280;16191;49.548;8.658;2023-03-24T05:37:06;99293.91;;;13.21;100.00
29121;BME280;16191;49.548;8.658;2023-03-24T05:39:37;99293.88;;;13.09;100.00
29121;BME280;16191;49.548;8.658;2023-03-24T05:42:16;99293.13;;;13.07;100.00
29121;BME280;16191;49.548;8.658;2023-03-24T05:44:42;99297.53;;;13.06;100.00
29121;BME280;16191;49.548;8.658;2023-03-24T05:47:16;99293.03;;;13.08;100.00
29121;BME280;16191;49.548;8.658;2023-03-24T05:49:45;99292.81;;;12.98;100.00
29121;BME280;16191;49.548;8.658;2023-03-24T05:52:12;99281.69;;;12.95;100.00
29121;BME280;16191;49.548;8.658;2023-03-24T05:54:43;99287.13;;;12.92;100.00
29121;BME280;16191;49.548;8.658;2023-03-24T05:57:18;99284.63;;;12.90;100.00
29121;BME280;16191;49.548;8.658;2023-03-24T06:00:05;99286.50;;;12.88;100.00
29121;BME280;16191;49.548;8.658;2023-03-24T06:02:49;99295.28;;;12.87;100.00
29121;BME280;16191;49.548;8.658;2023-03-24T06:05:24;99295.28;;;12.87;100.00
29121;BME280;16191;49.548;8.658;2023-03-24T06:07:51;99293.50;;;12.88;100.00
29121;BME280;16191;49.548;8.658;2023-03-24T06:10:25;99291.63;;;12.90;100.00
29121;BME280;16191;49.548;8.658;2023-03-24T06:12:51;99297.81;;;12.89;100.00
29121;BME280;16191;49.548;8.658;2023-03-24T06:15:18;99292.38;;;12.92;100.00
29121;BME280;16191;49.548;8.658;2023-03-24T06:17:47;99290.78;;;12.89;100.00
29121;BME280;16191;49.548;8.658;2023-03-24T06:20:24;99291.53;;;12.91;100.00
29121;BME280;16191;49.548;8.658;2023-03-24T06:23:04;99302.84;;;12.92;100.00
29121;BME280;16191;49.548;8.658;2023-03-24T06:25:43;99300.88;;;12.95;100.00
29121;BME280;16191;49.548;8.658;2023-03-24T06:28:19;99305.47;;;12.92;100.00
29121;BME280;16191;49.548;8.658;2023-03-24T06:30:47;99307.06;;;12.94;100.00
29121;BME280;16191;49.548;8.658;2023-03-24T06:33:28;99303.88;;;12.89;100.00
29121;BME280;16191;49.548;8.658;2023-03-24T06:35:55;99298.84;;;12.86;100.00
29121;BME280;16191;49.548;8.658;2023-03-24T06:38:23;99302.09;;;12.90;100.00
29121;BME280;16191;49.548;8.658;2023-03-24T06:40:49;99307.44;;;12.88;100.00
29121;BME280;16191;49.548;8.658;2023-03-24T06:43:16;99296.22;;;12.86;100.00
29121;BME280;16191;49.548;8.658;2023-03-24T06:45:43;99299.50;;;12.90;100.00
29121;BME280;16191;49.548;8.658;2023-03-24T06:48:16;99315.28;;;12.88;100.00
29121;BME280;16191;49.548;8.658;2023-03-24T06:50:43;99307.34;;;12.90;100.00
29121;BME280;16191;49.548;8.658;2023-03-24T06:53:10;99332.03;;;12.86;100.00
29121;BME280;16191;49.548;8.658;2023-03-24T06:55:37;99324.09;;;12.87;100.00
29121;BME280;16191;49.548;8.658;2023-03-24T06:58:05;99326.91;;;12.84;100.00
29121;BME280;16191;49.548;8.658;2023-03-24T07:00:40;99336.25;;;12.88;100.00
29121;BME280;16191;49.548;8.658;2023-03-24T07:03:27;99340.63;;;12.88;100.00
29121;BME280;16191;49.548;8.658;2023-03-24T07:06:20;99344.28;;;12.85;100.00
29121;BME280;16191;49.548;8.658;2023-03-24T07:08:52;99346.81;;;12.87;100.00
29121;BME280;16191;49.548;8.658;2023-03-24T07:11:21;99347.38;;;12.92;100.00
29121;BME280;16191;49.548;8.658;2023-03-24T07:13:52;99355.31;;;12.90;100.00
29121;BME280;16191;49.548;8.658;2023-03-24T07:16:18;99353.16;;;12.97;100.00
29121;BME280;16191;49.548;8.658;2023-03-24T07:18:49;99372.22;;;12.99;100.00
29121;BME280;16191;49.548;8.658;2023-03-24T07:21:16;99359.84;;;13.01;100.00
29121;BME280;16191;49.548;8.658;2023-03-24T07:23:45;99361.53;;;13.02;100.00
29121;BME280;16191;49.548;8.658;2023-03-24T07:26:16;99358.91;;;13.02;100.00
29121;BME280;16191;49.548;8.658;2023-03-24T07:28:45;99363.31;;;13.01;100.00
29121;BME280;16191;49.548;8.658;2023-03-24T07:31:20;99366.84;;;13.00;100.00
29121;BME280;16191;49.548;8.658;2023-03-24T07:33:53;99355.44;;;13.01;100.00
29121;BME280;16191;49.548;8.658;2023-03-24T07:36:19;99351.28;;;12.99;100.00
29121;BME280;16191;49.548;8.658;2023-03-24T07:38:46;99353.56;;;13.03;100.00
29121;BME280;16191;49.548;8.658;2023-03-24T07:41:21;99352.72;;;13.03;100.00
29121;BME280;16191;49.548;8.658;2023-03-24T07:43:52;99347.50;;;13.03;100.00
29121;BME280;16191;49.548;8.658;2023-03-24T07:46:31;99349.91;;;13.06;100.00
29121;BME280;16191;49.548;8.658;2023-03-24T07:48:58;99345.72;;;13.03;100.00
29121;BME280;16191;49.548;8.658;2023-03-24T07:51:38;99337.75;;;13.05;100.00
29121;BME280;16191;49.548;8.658;2023-03-24T07:54:18;99348.22;;;13.05;100.00
29121;BME280;16191;49.548;8.658;2023-03-24T07:56:46;99343.09;;;13.03;100.00
29121;BME280;16191;49.548;8.658;2023-03-24T07:59:13;99347.50;;;13.03;100.00
29121;BME280;16191;49.548;8.658;2023-03-24T08:02:00;99342.16;;;13.04;100.00
29121;BME280;16191;49.548;8.658;2023-03-24T08:04:49;99346.03;;;12.99;100.00
29121;BME280;16191;49.548;8.658;2023-03-24T08:07:50;99352.22;;;12.98;100.00
29121;BME280;16191;49.548;8.658;2023-03-24T08:10:26;99351.03;;;13.02;100.00
29121;BME280;16191;49.548;8.658;2023-03-24T08:12:54;99348.22;;;13.05;100.00
29121;BME280;16191;49.548;8.658;2023-03-24T08:15:21;99347.19;;;13.08;100.00
29121;BME280;16191;49.548;8.658;2023-03-24T08:17:48;99337.66;;;13.07;100.00
29121;BME280;16191;49.548;8.658;2023-03-24T08:20:16;99335.38;;;13.15;100.00
29121;BME280;16191;49.548;8.658;2023-03-24T08:22:46;99341.56;;;13.14;100.00
29121;BME280;16191;49.548;8.658;2023-03-24T08:25:22;99348.69;;;13.12;100.00
29121;BME280;16191;49.548;8.658;2023-03-24T08:27:49;99352.03;;;13.14;100.00
29121;BME280;16191;49.548;8.658;2023-03-24T08:30:18;99350.38;;;13.13;100.00
29121;BME280;16191;49.548;8.658;2023-03-24T08:32:48;99355.50;;;13.14;100.00
29121;BME280;16191;49.548;8.658;2023-03-24T08:35:16;99359.91;;;13.14;100.00
29121;BME280;16191;49.548;8.658;2023-03-24T08:37:44;99360.69;;;13.16;100.00
29121;BME280;16191;49.548;8.658;2023-03-24T08:40:13;99358.91;;;13.16;100.00
29121;BME280;16191;49.548;8.658;2023-03-24T08:42:43;99352.81;;;13.16;100.00
29121;BME280;16191;49.548;8.658;2023-03-24T08:45:11;99354.66;;;13.14;100.00
29121;BME280;16191;49.548;8.658;2023-03-24T08:47:38;99351.31;;;13.12;100.00
29121;BME280;16191;49.548;8.658;2023-03-24T08:50:06;99347.56;;;13.16;100.00
29121;BME280;16191;49.548;8.658;2023-03-24T08:52:33;99358.06;;;13.16;100.00
29121;BME280;16191;49.548;8.658;2023-03-24T08:55:01;99357.13;;;13.17;100.00
29121;BME280;16191;49.548;8.658;2023-03-24T08:57:28;99359.53;;;13.20;100.00
29121;BME280;16191;49.548;8.658;2023-03-24T08:59:54;99357.75;;;13.20;100.00
29121;BME280;16191;49.548;8.658;2023-03-24T09:02:21;99362.25;;;13.18;100.00
29121;BME280;16191;49.548;8.658;2023-03-24T09:04:48;99361.31;;;13.19;100.00
29121;BME280;16191;49.548;8.658;2023-03-24T09:07:19;99359.31;;;13.23;100.00
29121;BME280;16191;49.548;8.658;2023-03-24T09:09:46;99359.97;;;13.26;100.00
29121;BME280;16191;49.548;8.658;2023-03-24T09:12:12;99354.63;;;13.28;100.00
29121;BME280;16191;49.548;8.658;2023-03-24T09:14:39;99354.31;;;13.32;100.00
29121;BME280;16191;49.548;8.658;2023-03-24T09:17:06;99363.88;;;13.33;100.00
29121;BME280;16191;49.548;8.658;2023-03-24T09:19:32;99356.66;;;13.37;100.00
29121;BME280;16191;49.548;8.658;2023-03-24T09:21:59;99360.19;;;13.36;100.00
29121;BME280;16191;49.548;8.658;2023-03-24T09:24:26;99359.84;;;13.28;100.00
29121;BME280;16191;49.548;8.658;2023-03-24T09:26:52;99360.59;;;13.30;100.00
29121;BME280;16191;49.548;8.658;2023-03-24T09:29:19;99364.06;;;13.30;100.00
29121;BME280;16191;49.548;8.658;2023-03-24T09:31:45;99365.75;;;13.31;100.00
29121;BME280;16191;49.548;8.658;2023-03-24T09:34:12;99378.00;;;13.31;100.00
29121;BME280;16191;49.548;8.658;2023-03-24T09:36:38;99352.53;;;13.33;100.00
29121;BME280;16191;49.548;8.658;2023-03-24T09:39:05;99356.75;;;13.35;100.00
29121;BME280;16191;49.548;8.658;2023-03-24T09:41:32;99365.75;;;13.31;100.00
29121;BME280;16191;49.548;8.658;2023-03-24T09:44:20;99360.50;;;13.31;100.00
29121;BME280;16191;49.548;8.658;2023-03-24T09:46:52;99361.03;;;13.36;100.00
29121;BME280;16191;49.548;8.658;2023-03-24T09:49:27;99358.22;;;13.40;100.00
29121;BME280;16191;49.548;8.658;2023-03-24T09:52:02;99361.16;;;13.48;100.00
29121;BME280;16191;49.548;8.658;2023-03-24T09:54:43;99359.28;;;13.50;100.00
29121;BME280;16191;49.548;8.658;2023-03-24T09:57:18;99356.84;;;13.47;100.00
29121;BME280;16191;49.548;8.658;2023-03-24T09:59:46;99361.44;;;13.43;100.00
29121;BME280;16191;49.548;8.658;2023-03-24T10:02:15;99365.16;;;13.41;100.00
29121;BME280;16191;49.548;8.658;2023-03-24T10:04:43;99372.91;;;13.42;100.00
29121;BME280;16191;49.548;8.658;2023-03-24T10:07:42;99366.59;;;13.45;100.00
29121;BME280;16191;49.548;8.658;2023-03-24T10:13:17;99373.63;;;13.44;100.00
29121;BME280;16191;49.548;8.658;2023-03-24T10:15:55;99374.06;;;13.51;100.00
29121;BME280;16191;49.548;8.658;2023-03-24T10:18:39;99379.53;;;13.60;100.00
29121;BME280;16191;49.548;8.658;2023-03-24T10:21:16;99384.97;;;13.57;100.00
29121;BME280;16191;49.548;8.658;2023-03-24T10:23:52;99384.25;;;13.55;100.00
29121;BME280;16191;49.548;8.658;2023-03-24T10:26:31;99383.31;;;13.56;100.00
29121;BME280;16191;49.548;8.658;2023-03-24T10:29:32;99391.56;;;13.50;100.00
29121;BME280;16191;49.548;8.658;2023-03-24T10:32:17;99404.03;;;13.47;100.00
29121;BME280;16191;49.548;8.658;2023-03-24T10:34:52;99397.94;;;13.46;100.00
29121;BME280;16191;49.548;8.658;2023-03-24T10:37:20;99403.28;;;13.45;100.00
29121;BME280;16191;49.548;8.658;2023-03-24T10:39:47;99392.81;;;13.45;100.00
29121;BME280;16191;49.548;8.658;2023-03-24T10:42:17;99391.03;;;13.45;100.00
29121;BME280;16191;49.548;8.658;2023-03-24T10:44:48;99405.28;;;13.41;100.00
29121;BME280;16191;49.548;8.658;2023-03-24T10:47:19;99401.19;;;13.37;100.00
29121;BME280;16191;49.548;8.658;2023-03-24T10:49:58;99406.22;;;13.40;100.00
29121;BME280;16191;49.548;8.658;2023-03-24T10:52:43;99403.16;;;13.33;100.00
29121;BME280;16191;49.548;8.658;2023-03-24T10:55:17;99393.31;;;13.37;100.00
29121;BME280;16191;49.548;8.658;2023-03-24T10:57:50;99410.84;;;13.36;100.00
29121;BME280;16191;49.548;8.658;2023-03-24T11:00:20;99393.13;;;13.40;100.00
29121;BME280;16191;49.548;8.658;2023-03-24T11:02:55;99391.88;;;13.46;100.00
29121;BME280;16191;49.548;8.658;2023-03-24T11:05:27;99400.75;;;13.43;100.00
29121;BME280;16191;49.548;8.658;2023-03-24T11:08:09;99415.13;;;13.37;100.00
29121;BME280;16191;49.548;8.658;2023-03-24T11:10:37;99434.25;;;13.25;100.00
29121;BME280;16191;49.548;8.658;2023-03-24T11:13:04;99483.84;;;13.14;100.00
29121;BME280;16191;49.548;8.658;2023-03-24T11:16:04;99502.44;;;12.68;100.00
29121;BME280;16191;49.548;8.658;2023-03-24T11:18:32;99493.63;;;12.41;100.00
29121;BME280;16191;49.548;8.658;2023-03-24T11:21:01;99496.72;;;12.33;100.00
29121;BME280;16191;49.548;8.658;2023-03-24T11:23:42;99475.19;;;12.14;100.00
29121;BME280;16191;49.548;8.658;2023-03-24T11:26:19;99483.25;;;12.11;100.00
29121;BME280;16191;49.548;8.658;2023-03-24T11:28:53;99486.13;;;12.07;100.00
29121;BME280;16191;49.548;8.658;2023-03-24T11:31:32;99501.13;;;12.03;100.00
29121;BME280;16191;49.548;8.658;2023-03-24T11:34:14;99495.72;;;12.06;100.00
29121;BME280;16191;49.548;8.658;2023-03-24T11:36:47;99487.63;;;12.11;100.00
29121;BME280;16191;49.548;8.658;2023-03-24T11:39:17;99490.03;;;12.14;100.00
29121;BME280;16191;49.548;8.658;2023-03-24T11:49:38;99463.34;;;12.23;100.00
29121;BME280;16191;49.548;8.658;2023-03-24T11:52:21;99459.53;;;12.28;100.00
29121;BME280;16191;49.548;8.658;2023-03-24T11:54:48;99460.09;;;12.33;100.00
29121;BME280;16191;49.548;8.658;2023-03-24T11:57:22;99466.81;;;12.23;100.00
29121;BME280;16191;49.548;8.658;2023-03-24T12:00:19;99471.69;;;12.29;100.00
29121;BME280;16191;49.548;8.658;2023-03-24T12:05:39;99482.41;;;12.39;100.00
29121;BME280;16191;49.548;8.658;2023-03-24T12:08:31;99475.03;;;12.46;100.00
29121;BME280;16191;49.548;8.658;2023-03-24T12:11:16;99458.28;;;12.62;100.00
29121;BME280;16191;49.548;8.658;2023-03-24T12:13:47;99469.06;;;12.72;100.00
29121;BME280;16191;49.548;8.658;2023-03-24T12:16:24;99461.63;;;12.79;100.00
29121;BME280;16191;49.548;8.658;2023-03-24T12:22:08;99462.19;;;12.84;100.00
29121;BME280;16191;49.548;8.658;2023-03-24T12:33:01;99458.97;;;13.07;100.00
29121;BME280;16191;49.548;8.658;2023-03-24T12:35:40;99448.56;;;13.34;100.00
29121;BME280;16191;49.548;8.658;2023-03-24T12:38:38;99444.09;;;13.49;100.00
29121;BME280;16191;49.548;8.658;2023-03-24T12:43:53;99441.47;;;14.52;100.00
29121;BME280;16191;49.548;8.658;2023-03-24T12:46:46;99441.72;;;14.49;100.00
29121;BME280;16191;49.548;8.658;2023-03-24T12:49:36;99422.97;;;14.66;100.00
29121;BME280;16191;49.548;8.658;2023-03-24T12:54:57;99422.56;;;14.96;100.00
29121;BME280;16191;49.548;8.658;2023-03-24T12:58:10;99437.19;;;15.24;100.00
29121;BME280;16191;49.548;8.658;2023-03-24T13:00:43;99428.75;;;15.55;100.00
29121;BME280;16191;49.548;8.658;2023-03-24T13:03:20;99428.97;;;15.76;100.00
29121;BME280;16191;49.548;8.658;2023-03-24T13:05:52;99425.28;;;15.90;100.00
29121;BME280;16191;49.548;8.658;2023-03-24T13:08:30;99413.56;;;16.05;100.00
29121;BME280;16191;49.548;8.658;2023-03-24T13:11:03;99416.81;;;15.97;100.00
29121;BME280;16191;49.548;8.658;2023-03-24T13:13:35;99410.63;;;16.32;100.00
29121;BME280;16191;49.548;8.658;2023-03-24T13:16:12;99416.13;;;16.62;100.00
29121;BME280;16191;49.548;8.658;2023-03-24T13:18:43;99423.44;;;16.36;100.00
29121;BME280;16191;49.548;8.658;2023-03-24T13:21:19;99412.16;;;16.45;100.00
29121;BME280;16191;49.548;8.658;2023-03-24T13:24:06;99409.72;;;15.87;100.00
29121;BME280;16191;49.548;8.658;2023-03-24T13:26:46;99423.16;;;16.06;100.00
29121;BME280;16191;49.548;8.658;2023-03-24T13:34:44;99420.59;;;15.82;100.00
29121;BME280;16191;49.548;8.658;2023-03-24T13:37:18;99419.22;;;15.65;94.37
29121;BME280;16191;49.548;8.658;2023-03-24T13:39:51;99411.81;;;16.17;93.74
29121;BME280;16191;49.548;8.658;2023-03-24T13:42:29;99420.06;;;16.01;87.97
29121;BME280;16191;49.548;8.658;2023-03-24T13:44:59;99420.97;;;15.89;80.93
29121;BME280;16191;49.548;8.658;2023-03-24T13:47:46;99430.63;;;15.77;80.05
29121;BME280;16191;49.548;8.658;2023-03-24T13:50:14;99419.28;;;15.76;79.82
29121;BME280;16191;49.548;8.658;2023-03-24T13:52:44;99417.94;;;15.71;75.98
29121;BME280;16191;49.548;8.658;2023-03-24T13:55:20;99420.53;;;16.06;75.18
29121;BME280;16191;49.548;8.658;2023-03-24T13:58:00;99416.59;;;16.90;69.74
29121;BME280;16191;49.548;8.658;2023-03-24T14:00:30;99423.00;;;17.19;70.10
29121;BME280;16191;49.548;8.658;2023-03-24T14:03:14;99415.53;;;16.59;69.91
29121;BME280;16191;49.548;8.658;2023-03-24T14:06:01;99397.81;;;17.26;69.81
29121;BME280;16191;49.548;8.658;2023-03-24T14:16:42;99406.97;;;18.17;62.55
29121;BME280;16191;49.548;8.658;2023-03-24T14:21:43;99378.03;;;18.76;57.24
29121;BME280;16191;49.548;8.658;2023-03-24T14:24:23;99396.69;;;17.72;61.13
29121;BME280;16191;49.548;8.658;2023-03-24T14:26:51;99402.00;;;17.81;61.17
29121;BME280;16191;49.548;8.658;2023-03-24T14:29:37;99393.81;;;17.64;60.66
29121;BME280;16191;49.548;8.658;2023-03-24T14:32:04;99404.13;;;17.35;60.63
29121;BME280;16191;49.548;8.658;2023-03-24T14:34:51;99395.28;;;17.57;62.12
29121;BME280;16191;49.548;8.658;2023-03-24T14:37:19;99399.66;;;17.46;62.60
29121;BME280;16191;49.548;8.658;2023-03-24T14:39:47;99401.34;;;17.36;63.40
29121;BME280;16191;49.548;8.658;2023-03-24T14:45:01;99378.94;;;17.10;64.10
29121;BME280;16191;49.548;8.658;2023-03-24T14:47:34;99375.53;;;16.87;62.74
29121;BME280;16191;49.548;8.658;2023-03-24T14:50:17;99391.44;;;16.97;66.10
29121;BME280;16191;49.548;8.658;2023-03-24T14:52:58;99389.19;;;16.59;67.93
29121;BME280;16191;49.548;8.658;2023-03-24T14:55:26;99382.72;;;16.85;69.69